Time;durP1;ratioP1;P1;durP2;ratioP2;P2;SDS_P1;SDS_P2;PMS_P1;PMS_P2;Temp;Humidity;BMP_temperature;BMP_pressure;BME280_temperature;BME280_humidity;BME280_pressure;Samples;Min_cycle;Max_cycle;Signal;HPM_P1;HPM_P2
2022/03/05 00:01:14;;;;;;;9.02;1.92;;;;;;;5.43;100.00;101989.91;5088502;28;20044;-87
2022/03/05 00:03:41;;;;;;;10.68;3.95;;;;;;;5.72;100.00;102005.59;5087719;28;20055;-87
2022/03/05 00:06:08;;;;;;;9.60;2.13;;;;;;;5.51;100.00;102002.06;5091911;28;20040;-87
2022/03/05 00:08:34;;;;;;;15.70;2.42;;;;;;;5.10;100.00;101974.19;5091745;28;20048;-86
2022/03/05 00:11:02;;;;;;;6.55;1.85;;;;;;;5.33;100.00;101994.19;5087823;28;20401;-86
2022/03/05 00:13:30;;;;;;;5.80;1.85;;;;;;;5.43;100.00;102018.47;5091167;28;20052;-86
2022/03/05 00:15:57;;;;;;;8.18;1.92;;;;;;;5.35;100.00;102002.88;5089902;28;20539;-87
2022/03/05 00:18:24;;;;;;;10.55;2.05;;;;;;;5.18;100.00;101975.94;5091165;28;20158;-87
2022/03/05 00:20:53;;;;;;;8.48;2.65;;;;;;;5.33;100.00;101971.69;5091052;28;20047;-87
2022/03/05 00:23:20;;;;;;;7.13;2.00;;;;;;;5.36;100.00;101986.41;5090886;28;20056;-86
2022/03/05 00:25:47;;;;;;;9.38;1.63;;;;;;;5.04;100.00;101979.31;5091856;28;20098;-87
2022/03/05 00:28:15;;;;;;;7.32;2.05;;;;;;;5.41;100.00;101989.88;5107777;28;20130;-87
2022/03/05 00:30:41;;;;;;;10.10;1.88;;;;;;;5.39;100.00;102017.59;5089975;28;20050;-87
2022/03/05 00:33:08;;;;;;;9.95;1.95;;;;;;;5.60;100.00;102016.81;5090456;28;20072;-87
2022/03/05 00:35:35;;;;;;;8.63;1.95;;;;;;;5.60;100.00;102026.34;5090148;28;20091;-87
2022/03/05 00:38:02;;;;;;;6.00;1.80;;;;;;;5.69;100.00;102013.38;5091020;28;20047;-87
2022/03/05 00:40:29;;;;;;;7.20;1.75;;;;;;;5.55;100.00;102000.34;5089671;28;20085;-87
2022/03/05 00:42:56;;;;;;;7.38;1.90;;;;;;;5.68;100.00;102027.22;5091542;28;20044;-87
2022/03/05 00:45:23;;;;;;;8.27;1.85;;;;;;;5.53;100.00;102022.00;5089811;28;20447;-88
2022/03/05 00:47:50;;;;;;;11.63;2.00;;;;;;;5.63;100.00;102031.53;5091905;28;20508;-89
2022/03/05 00:50:17;;;;;;;10.93;1.85;;;;;;;5.29;100.00;102021.88;5089931;28;20044;-88
2022/03/05 00:52:43;;;;;;;7.13;1.92;;;;;;;5.37;100.00;102029.72;5090852;28;20044;-88
2022/03/05 00:55:10;;;;;;;6.75;3.05;;;;;;;5.17;100.00;102001.06;5092234;28;20083;-87
2022/03/05 00:57:37;;;;;;;9.57;2.25;;;;;;;5.09;100.00;102026.97;5091705;28;20062;-87
2022/03/05 01:00:05;;;;;;;6.05;1.52;;;;;;;5.42;100.00;102040.09;5106785;28;20054;-85
2022/03/05 01:02:32;;;;;;;11.52;3.90;;;;;;;5.00;100.00;102032.09;5090497;28;20052;-87
2022/03/05 01:04:59;;;;;;;10.10;2.10;;;;;;;5.06;100.00;102050.28;5094078;28;20063;-87
2022/03/05 01:07:26;;;;;;;5.82;1.52;;;;;;;5.39;100.00;102047.91;5094795;28;20050;-87
2022/03/05 01:09:53;;;;;;;10.75;1.92;;;;;;;5.16;100.00;102014.88;5094370;28;20050;-87
2022/03/05 01:12:21;;;;;;;10.80;2.08;;;;;;;5.43;100.00;102047.03;5091409;28;20052;-87
2022/03/05 01:14:49;;;;;;;6.35;1.70;;;;;;;5.19;100.00;102046.06;5095204;28;20048;-87
2022/03/05 01:17:18;;;;;;;5.63;1.77;;;;;;;5.33;100.00;102033.16;5111558;28;20086;-88
2022/03/05 01:19:46;;;;;;;4.85;1.92;;;;;;;5.41;100.00;102044.44;5094839;28;20082;-86
2022/03/05 01:22:13;;;;;;;6.10;1.80;;;;;;;5.41;100.00;102048.78;5074295;28;20132;-87
2022/03/05 01:24:41;;;;;;;7.85;1.92;;;;;;;5.14;100.00;102037.38;5074578;28;20494;-88
2022/03/05 01:27:10;;;;;;;10.63;2.22;;;;;;;5.18;100.00;102026.13;5074162;28;20075;-86
2022/03/05 01:29:37;;;;;;;10.52;2.22;;;;;;;4.84;100.00;102036.31;5090110;28;20082;-87
2022/03/05 01:32:04;;;;;;;10.13;1.80;;;;;;;4.71;100.00;102017.22;5091715;28;20048;-88
2022/03/05 01:34:31;;;;;;;7.95;2.70;;;;;;;5.24;100.00;102039.19;5095657;28;20379;-87
2022/03/05 01:36:58;;;;;;;7.13;1.63;;;;;;;4.80;100.00;102016.41;5094401;28;20058;-88
2022/03/05 01:39:24;;;;;;;6.50;1.70;;;;;;;4.86;100.00;102016.44;5110842;28;20056;-87
2022/03/05 01:41:55;;;;;;;6.22;1.80;;;;;;;4.87;100.00;102013.00;5079868;28;20054;-88
2022/03/05 01:44:23;;;;;;;5.85;1.70;;;;;;;5.30;100.00;102025.34;5074489;28;20087;-88
2022/03/05 01:46:50;;;;;;;12.98;2.60;;;;;;;5.25;100.00;102024.44;5090753;28;20463;-87
2022/03/05 01:49:17;;;;;;;6.88;1.73;;;;;;;5.12;100.00;102021.78;5073418;28;20048;-88
2022/03/05 01:51:44;;;;;;;17.35;2.70;;;;;;;5.07;100.00;102049.44;5104048;28;20040;-87
2022/03/05 01:54:11;;;;;;;8.45;2.00;;;;;;;5.20;100.00;102046.94;5093986;28;20040;-87
2022/03/05 01:56:39;;;;;;;10.68;2.42;;;;;;;5.15;100.00;102080.63;5093510;28;20051;-87
2022/03/05 01:59:07;;;;;;;11.00;2.83;;;;;;;4.95;100.00;102063.19;5094130;28;20070;-88
2022/03/05 02:01:34;;;;;;;10.23;2.17;;;;;;;5.27;100.00;102078.13;5092699;28;20044;-87
2022/03/05 02:04:01;;;;;;;7.40;1.77;;;;;;;5.53;100.00;102068.75;5110512;28;20090;-87
2022/03/05 02:06:28;;;;;;;8.10;2.47;;;;;;;5.33;100.00;102072.13;5093800;28;20052;-87
2022/03/05 02:08:57;;;;;;;7.88;1.63;;;;;;;5.44;100.00;102066.97;5093859;28;20048;-86
2022/03/05 02:11:25;;;;;;;7.40;1.70;;;;;;;5.26;100.00;102054.78;5083303;28;20055;-87
2022/03/05 02:13:53;;;;;;;11.07;1.67;;;;;;;4.94;100.00;102056.28;5075550;28;20060;-87
2022/03/05 02:16:21;;;;;;;9.43;2.53;;;;;;;4.86;100.00;102077.84;5092979;28;20051;-88
2022/03/05 02:18:49;;;;;;;3.60;1.45;;;;;;;5.09;100.00;102050.31;5093445;28;20044;-87
2022/03/05 02:21:17;;;;;;;9.35;2.90;;;;;;;5.28;100.00;102079.00;5091521;28;20135;-87
2022/03/05 02:23:44;;;;;;;8.38;1.77;;;;;;;5.37;100.00;102076.47;5094772;28;20537;-87
2022/03/05 02:26:11;;;;;;;11.23;1.90;;;;;;;5.13;100.00;102066.78;5093332;28;20051;-88
2022/03/05 02:28:38;;;;;;;10.15;1.60;;;;;;;4.88;100.00;102099.50;5094451;28;20048;-88
2022/03/05 02:31:06;;;;;;;10.88;2.03;;;;;;;4.99;100.00;102082.25;5084176;28;20402;-88
2022/03/05 02:33:33;;;;;;;8.93;2.13;;;;;;;4.75;100.00;102082.97;5072922;28;20052;-87
2022/03/05 02:36:01;;;;;;;8.60;1.67;;;;;;;5.26;100.00;102097.19;5094667;28;20062;-88
2022/03/05 02:38:28;;;;;;;6.95;1.80;;;;;;;4.91;100.00;102061.47;5095360;28;20108;-87
2022/03/05 02:40:55;;;;;;;7.50;1.92;;;;;;;5.24;100.00;102104.09;5090846;28;20595;-87
2022/03/05 02:43:22;;;;;;;6.53;1.33;;;;;;;5.28;100.00;102079.88;5092799;28;20052;-87
2022/03/05 02:45:51;;;;;;;8.32;1.95;;;;;;;5.01;100.00;102082.28;5092582;28;20044;-88
2022/03/05 02:48:19;;;;;;;6.65;1.85;;;;;;;5.17;100.00;102111.81;5093123;28;20378;-87
2022/03/05 02:50:48;;;;;;;8.27;2.13;;;;;;;5.08;100.00;102100.53;5108773;28;20050;-88
2022/03/05 02:53:16;;;;;;;7.05;1.73;;;;;;;5.01;100.00;102101.34;5092692;28;20134;-88
2022/03/05 02:55:43;;;;;;;9.50;2.55;;;;;;;5.21;100.00;102113.59;5092774;28;20382;-88
2022/03/05 02:58:10;;;;;;;5.32;1.40;;;;;;;4.85;100.00;102091.69;5092630;28;20048;-87
2022/03/05 03:00:38;;;;;;;10.63;1.83;;;;;;;4.93;100.00;102119.44;5091197;28;20044;-88
2022/03/05 03:03:05;;;;;;;15.32;1.90;;;;;;;5.12;100.00;102125.63;5093860;28;20063;-88
2022/03/05 03:05:32;;;;;;;8.38;1.73;;;;;;;5.04;100.00;102110.88;5092190;28;20066;-86
2022/03/05 03:07:59;;;;;;;9.30;1.90;;;;;;;5.23;100.00;102085.91;5093780;28;20048;-87
2022/03/05 03:10:26;;;;;;;9.20;1.70;;;;;;;5.01;100.00;102129.91;5090742;28;20076;-88
2022/03/05 03:12:53;;;;;;;11.70;2.53;;;;;;;4.96;100.00;102095.25;5093666;28;20098;-88
2022/03/05 03:15:20;;;;;;;8.43;2.00;;;;;;;5.08;100.00;102077.16;5092113;28;20060;-87
2022/03/05 03:17:51;;;;;;;5.30;1.48;;;;;;;5.40;100.00;102112.84;5093797;28;20051;-88
2022/03/05 03:20:25;;;;;;;7.25;1.70;;;;;;;5.18;100.00;102117.03;5093000;28;20044;-87
2022/03/05 03:22:52;;;;;;;5.75;1.70;;;;;;;5.22;100.00;102118.78;5072069;28;20049;-88
2022/03/05 03:25:19;;;;;;;5.47;1.60;;;;;;;5.18;100.00;102108.38;5090963;28;20143;-88
2022/03/05 03:27:46;;;;;;;8.82;1.80;;;;;;;5.37;100.00;102130.16;5111461;28;20051;-87
2022/03/05 03:30:15;;;;;;;5.38;1.52;;;;;;;4.85;100.00;102094.28;5108870;28;20062;-87
2022/03/05 03:32:43;;;;;;;8.90;1.67;;;;;;;4.93;100.00;102127.22;5091865;28;20054;-87
2022/03/05 03:35:12;;;;;;;10.82;2.00;;;;;;;4.98;100.00;102088.34;5108951;28;20082;-88
2022/03/05 03:37:40;;;;;;;4.10;1.58;;;;;;;5.00;100.00;102102.19;5091964;28;20090;-87
2022/03/05 03:40:10;;;;;;;12.88;2.22;;;;;;;5.22;100.00;102123.09;5108170;28;20051;-87
2022/03/05 03:42:37;;;;;;;10.90;2.05;;;;;;;5.36;100.00;102137.03;5092648;28;20512;-87
2022/03/05 03:45:05;;;;;;;6.20;1.60;;;;;;;4.93;100.00;102141.94;5091718;28;20055;-87
2022/03/05 03:47:32;;;;;;;7.53;1.40;;;;;;;4.95;100.00;102132.44;5091280;28;20048;-87
2022/03/05 03:49:59;;;;;;;5.57;1.73;;;;;;;5.16;100.00;102133.47;5091400;28;20044;-87
2022/03/05 03:52:26;;;;;;;5.35;1.60;;;;;;;5.12;100.00;102119.59;5088935;28;20048;-87
2022/03/05 03:54:53;;;;;;;9.40;2.17;;;;;;;5.00;100.00;102142.84;5091389;28;20490;-86
2022/03/05 03:57:20;;;;;;;5.97;1.95;;;;;;;4.63;100.00;102120.03;5091333;28;20044;-87
2022/03/05 03:59:47;;;;;;;6.18;1.70;;;;;;;5.21;100.00;102134.38;5089564;28;20052;-86
2022/03/05 04:02:14;;;;;;;7.55;2.60;;;;;;;5.26;100.00;102151.72;5090010;28;20374;-86
2022/03/05 04:04:41;;;;;;;5.57;1.60;;;;;;;5.12;100.00;102163.72;5108454;28;20422;-86
2022/03/05 04:09:54;;;;;;;4.38;1.35;;;;;;;5.01;100.00;102152.38;5092102;28;20048;-86
2022/03/05 04:12:22;;;;;;;7.72;1.63;;;;;;;5.09;100.00;102141.19;5091764;28;20050;-87
2022/03/05 04:14:49;;;;;;;9.27;2.22;;;;;;;5.07;100.00;102149.84;5091191;28;20059;-87
2022/03/05 04:17:16;;;;;;;7.68;1.75;;;;;;;5.11;100.00;102170.63;5091417;28;20083;-87
2022/03/05 04:19:43;;;;;;;5.45;1.52;;;;;;;4.91;100.00;102167.00;5091113;28;20055;-86
2022/03/05 04:22:10;;;;;;;6.30;1.73;;;;;;;4.81;100.00;102140.09;5090237;28;20048;-86
2022/03/05 04:24:37;;;;;;;7.78;2.08;;;;;;;4.73;100.00;102121.00;5107997;28;20062;-87
2022/03/05 04:27:05;;;;;;;7.03;1.80;;;;;;;4.59;100.00;102105.31;5111980;27;20056;-87
2022/03/05 04:29:32;;;;;;;14.82;1.83;;;;;;;4.84;100.00;102132.34;5092056;28;20489;-87
2022/03/05 04:31:59;;;;;;;3.65;1.33;;;;;;;4.70;100.00;102114.06;5090645;28;20131;-86
2022/03/05 04:34:26;;;;;;;15.45;2.58;;;;;;;5.03;100.00;102158.44;5107292;28;20052;-86
2022/03/05 04:36:53;;;;;;;7.78;1.90;;;;;;;5.01;100.00;102181.81;5090213;28;20393;-86
2022/03/05 04:39:19;;;;;;;9.85;1.85;;;;;;;4.92;100.00;102142.78;5076230;28;20052;-86
2022/03/05 04:41:46;;;;;;;11.88;2.40;;;;;;;5.09;100.00;102187.06;5088133;28;20044;-86
2022/03/05 04:44:13;;;;;;;7.20;1.95;;;;;;;4.83;100.00;102181.63;5108062;28;20509;-85
2022/03/05 04:46:40;;;;;;;8.80;1.67;;;;;;;5.01;100.00;102193.91;5092065;28;20079;-84
2022/03/05 04:49:12;;;;;;;6.18;1.70;;;;;;;4.83;100.00;102189.41;5091575;28;20082;-85
2022/03/05 04:51:39;;;;;;;7.13;1.60;;;;;;;4.98;100.00;102179.19;5089671;28;20040;-86
2022/03/05 04:54:06;;;;;;;9.45;2.80;;;;;;;4.74;100.00;102185.88;5090169;28;20048;-87
2022/03/05 04:56:33;;;;;;;8.93;2.17;;;;;;;4.36;100.00;102172.53;5104896;28;20134;-87
2022/03/05 04:59:00;;;;;;;8.38;1.88;;;;;;;4.36;100.00;102195.84;5127830;28;20047;-87
2022/03/05 05:01:26;;;;;;;8.38;1.80;;;;;;;4.44;100.00;102144.94;5097248;28;20518;-87
2022/03/05 05:03:53;;;;;;;6.00;1.85;;;;;;;4.60;100.00;102195.25;5090100;28;20127;-86
2022/03/05 05:06:20;;;;;;;6.93;1.63;;;;;;;4.94;100.00;102212.03;5090127;28;20595;-89
2022/03/05 05:08:47;;;;;;;7.50;1.77;;;;;;;5.08;100.00;102198.28;5091434;28;20464;-88
2022/03/05 05:11:13;;;;;;;5.20;1.45;;;;;;;4.97;100.00;102212.91;5078475;28;20493;-88
2022/03/05 05:13:41;;;;;;;9.25;2.33;;;;;;;4.55;100.00;102209.88;5070529;28;20075;-87
2022/03/05 05:16:07;;;;;;;7.18;1.60;;;;;;;4.22;100.00;102150.75;5070188;28;20413;-87
2022/03/05 05:18:34;;;;;;;4.75;1.60;;;;;;;4.77;100.00;102186.78;5083896;28;20132;-88
2022/03/05 05:21:01;;;;;;;9.55;1.80;;;;;;;4.80;100.00;102200.66;5085649;28;20048;-88
2022/03/05 05:23:28;;;;;;;8.20;1.50;;;;;;;4.98;100.00;102191.31;5107125;28;20620;-88
2022/03/05 05:25:56;;;;;;;7.35;2.13;;;;;;;5.18;100.00;102205.31;5107964;28;20070;-88
2022/03/05 05:28:23;;;;;;;7.25;1.65;;;;;;;4.88;100.00;102167.84;5091714;28;20048;-87
2022/03/05 05:30:49;;;;;;;4.90;1.40;;;;;;;4.80;100.00;102176.41;5089348;28;20036;-87
2022/03/05 05:33:16;;;;;;;4.45;1.30;;;;;;;5.00;100.00;102220.75;5092689;28;20052;-87
2022/03/05 05:35:43;;;;;;;6.45;2.47;;;;;;;4.48;100.00;102196.00;5070215;28;20394;-87
2022/03/05 05:38:10;;;;;;;6.60;1.75;;;;;;;4.73;100.00;102211.81;5079863;28;20040;-87
2022/03/05 05:40:37;;;;;;;6.05;1.80;;;;;;;4.60;100.00;102218.59;5084312;28;20047;-87
2022/03/05 05:43:03;;;;;;;5.55;1.63;;;;;;;5.00;100.00;102212.94;5089736;28;20616;-89
2022/03/05 05:45:30;;;;;;;6.75;2.33;;;;;;;4.54;100.00;102218.53;5089883;28;20058;-90
2022/03/05 05:47:58;;;;;;;8.48;1.50;;;;;;;4.73;100.00;102233.44;5091026;28;20545;-89
2022/03/05 05:50:25;;;;;;;8.68;2.90;;;;;;;4.79;100.00;102234.38;5091772;28;20058;-88
2022/03/05 05:52:51;;;;;;;7.40;1.63;;;;;;;4.51;100.00;102228.88;5093651;28;20036;-88
2022/03/05 05:55:18;;;;;;;7.95;1.67;;;;;;;4.55;100.00;102228.94;5093935;28;20068;-88
2022/03/05 05:57:45;;;;;;;4.82;1.80;;;;;;;5.00;100.00;102250.16;5094470;28;20130;-88
2022/03/05 06:00:12;;;;;;;8.25;1.88;;;;;;;4.71;100.00;102213.50;5093117;28;20060;-89
2022/03/05 06:02:39;;;;;;;7.15;1.88;;;;;;;4.94;100.00;102244.91;5094376;28;20044;-91
2022/03/05 06:05:06;;;;;;;8.80;2.10;;;;;;;5.11;100.00;102255.44;5084505;28;20044;-88
2022/03/05 06:07:33;;;;;;;3.97;1.50;;;;;;;5.08;100.00;102221.66;5088242;28;20055;-88
2022/03/05 06:10:00;;;;;;;8.02;2.30;;;;;;;4.77;100.00;102230.91;5095034;28;20056;-87
2022/03/05 06:12:27;;;;;;;7.35;1.75;;;;;;;4.91;100.00;102237.94;5093223;28;20040;-90
2022/03/05 06:14:54;;;;;;;10.98;2.65;;;;;;;4.55;100.00;102205.59;5094359;28;20048;-91
2022/03/05 06:17:21;;;;;;;8.82;2.50;;;;;;;4.73;100.00;102237.78;5080366;28;20058;-92
2022/03/05 06:19:48;;;;;;;8.07;1.80;;;;;;;5.19;100.00;102261.59;5095054;28;20044;-91
2022/03/05 06:22:15;;;;;;;10.98;1.92;;;;;;;4.61;100.00;102209.97;5092082;28;20493;-90
2022/03/05 06:24:42;;;;;;;5.50;1.73;;;;;;;5.17;100.00;102285.78;5093174;28;20059;-87
2022/03/05 06:27:09;;;;;;;7.03;1.58;;;;;;;4.81;100.00;102248.22;5110405;28;20788;-86
2022/03/05 06:29:35;;;;;;;8.10;1.80;;;;;;;4.82;100.00;102256.03;5093802;28;20549;-86
2022/03/05 06:32:03;;;;;;;5.18;1.33;;;;;;;4.95;100.00;102263.06;5090283;28;20098;-86
2022/03/05 06:34:31;;;;;;;10.15;2.67;;;;;;;4.80;100.00;102264.63;5093656;28;20055;-84
2022/03/05 06:37:00;;;;;;;9.68;2.22;;;;;;;4.88;100.00;102296.75;5093010;28;20052;-86
2022/03/05 06:39:27;;;;;;;7.30;2.00;;;;;;;4.96;100.00;102308.09;5074291;28;20056;-86
2022/03/05 06:41:54;;;;;;;7.97;3.28;;;;;;;4.76;100.00;102261.13;5104773;28;20059;-87
2022/03/05 06:44:21;;;;;;;6.40;2.15;;;;;;;4.81;100.00;102287.16;5093086;28;20048;-85
2022/03/05 06:46:48;;;;;;;11.63;2.35;;;;;;;4.67;100.00;102268.81;5072826;28;20054;-88
2022/03/05 06:49:15;;;;;;;8.77;2.22;;;;;;;4.79;100.00;102294.91;5092680;28;20058;-88
2022/03/05 06:51:42;;;;;;;9.27;2.10;;;;;;;4.75;100.00;102277.59;5082840;28;20143;-87
2022/03/05 06:54:08;;;;;;;10.73;1.88;;;;;;;4.96;100.00;102313.28;5091800;28;20048;-87
2022/03/05 06:56:35;;;;;;;7.38;1.75;;;;;;;4.90;100.00;102311.47;5092741;28;20044;-87
2022/03/05 06:59:03;;;;;;;5.97;1.77;;;;;;;5.26;100.00;102324.84;5091974;28;20409;-87
2022/03/05 07:01:34;;;;;;;9.05;2.17;;;;;;;5.23;100.00;102327.41;5090609;28;20044;-88
2022/03/05 07:04:01;;;;;;;9.45;2.63;;;;;;;5.20;100.00;102335.16;5092241;28;20071;-87
2022/03/05 07:06:28;;;;;;;15.65;3.58;;;;;;;5.09;100.00;102337.66;5092193;28;20058;-87
2022/03/05 07:08:55;;;;;;;7.43;1.80;;;;;;;4.94;100.00;102305.47;5092503;28;20503;-87
2022/03/05 07:11:21;;;;;;;9.35;2.50;;;;;;;4.80;100.00;102306.16;5091189;28;20077;-88
2022/03/05 07:13:48;;;;;;;7.10;1.65;;;;;;;4.83;100.00;102293.22;5091861;28;20486;-89
2022/03/05 07:16:15;;;;;;;8.30;1.80;;;;;;;5.32;100.00;102336.16;5091751;28;20066;-88
2022/03/05 07:18:42;;;;;;;12.27;2.15;;;;;;;4.73;100.00;102344.16;5077257;28;20471;-88
2022/03/05 07:21:09;;;;;;;9.18;2.25;;;;;;;4.91;100.00;102338.31;5095403;28;20080;-88
2022/03/05 07:23:36;;;;;;;8.57;2.20;;;;;;;5.44;100.00;102368.31;5091744;28;20040;-88
2022/03/05 07:26:03;;;;;;;10.93;2.20;;;;;;;5.08;100.00;102378.31;5091506;28;20075;-88
2022/03/05 07:28:30;;;;;;;9.23;2.20;;;;;;;4.86;100.00;102363.34;5091355;28;20048;-88
2022/03/05 07:30:56;;;;;;;7.68;2.03;;;;;;;4.43;100.00;102304.00;5088974;28;20051;-87
2022/03/05 07:33:24;;;;;;;9.98;2.88;;;;;;;5.08;100.00;102343.69;5107511;28;20069;-89
2022/03/05 07:35:51;;;;;;;11.45;2.33;;;;;;;5.08;100.00;102372.25;5090720;28;20048;-88
2022/03/05 07:38:18;;;;;;;10.63;2.20;;;;;;;5.06;100.00;102348.00;5091513;28;20052;-88
2022/03/05 07:40:44;;;;;;;11.63;2.70;;;;;;;5.60;100.00;102395.31;5091711;28;20515;-89
2022/03/05 07:43:12;;;;;;;10.25;2.50;;;;;;;5.10;100.00;102368.81;5091124;28;20071;-90
2022/03/05 07:45:39;;;;;;;6.80;1.90;;;;;;;5.97;100.00;102380.09;5091706;28;20044;-88
2022/03/05 07:48:06;;;;;;;18.33;2.80;;;;;;;6.68;100.00;102384.00;5108722;28;20072;-88
2022/03/05 07:50:33;;;;;;;7.80;1.98;;;;;;;6.58;100.00;102398.69;5107359;28;20058;-89
2022/03/05 07:53:00;;;;;;;11.77;2.08;;;;;;;6.59;100.00;102399.56;5093256;28;20067;-89
2022/03/05 07:55:26;;;;;;;11.00;2.75;;;;;;;6.93;100.00;102404.94;5090938;28;20051;-90
2022/03/05 07:57:53;;;;;;;5.75;2.13;;;;;;;6.34;100.00;102378.59;5090555;28;20050;-89
2022/03/05 08:00:20;;;;;;;8.43;1.80;;;;;;;6.68;100.00;102394.41;5091091;28;20403;-89
2022/03/05 08:02:49;;;;;;;15.82;4.15;;;;;;;7.29;100.00;102393.75;5091524;28;20055;-88
2022/03/05 08:05:17;;;;;;;6.18;1.75;;;;;;;7.39;100.00;102371.22;5092043;28;20123;-89
2022/03/05 08:07:43;;;;;;;10.80;1.83;;;;;;;7.08;100.00;102363.31;5091947;28;20534;-89
2022/03/05 08:10:10;;;;;;;8.38;1.88;;;;;;;7.68;100.00;102389.47;5118482;27;20087;-90
2022/03/05 08:12:37;;;;;;;10.05;2.17;;;;;;;8.00;100.00;102427.75;5071445;28;20055;-90
2022/03/05 08:15:06;;;;;;;9.75;1.92;;;;;;;8.38;100.00;102431.22;5072076;28;20200;-89
2022/03/05 08:17:32;;;;;;;5.82;1.73;;;;;;;7.62;100.00;102414.69;5088696;28;20101;-91
2022/03/05 08:19:59;;;;;;;6.82;1.75;;;;;;;7.75;100.00;102416.44;5090709;28;20044;-89
2022/03/05 08:22:27;;;;;;;5.68;1.70;;;;;;;8.06;100.00;102427.75;5070570;28;20045;-88
2022/03/05 08:24:55;;;;;;;10.15;2.00;;;;;;;8.23;100.00;102424.25;5070598;28;20048;-90
2022/03/05 08:27:21;;;;;;;7.93;1.83;;;;;;;7.56;100.00;102439.00;5085275;28;20059;-89
2022/03/05 08:29:49;;;;;;;11.27;2.20;;;;;;;8.43;100.00;102440.81;5090833;28;20055;-89
2022/03/05 08:32:16;;;;;;;9.68;2.15;;;;;;;8.07;100.00;102418.19;5087068;28;20066;-89
2022/03/05 08:34:42;;;;;;;8.35;1.73;;;;;;;7.97;100.00;102412.13;5090924;28;20050;-89
2022/03/05 08:37:09;;;;;;;10.40;1.98;;;;;;;8.50;100.00;102439.94;5107201;28;20047;-90
2022/03/05 08:39:36;;;;;;;10.70;1.95;;;;;;;7.58;100.00;102421.66;5091810;28;20432;-88
2022/03/05 08:42:03;;;;;;;6.28;1.77;;;;;;;8.16;100.00;102449.50;5080077;28;20040;-87
2022/03/05 08:44:30;;;;;;;10.90;1.70;;;;;;;9.00;100.00;102469.41;5089219;28;20052;-91
2022/03/05 08:46:57;;;;;;;11.23;2.60;;;;;;;9.22;100.00;102445.78;5090656;28;20127;-89
2022/03/05 08:49:24;;;;;;;8.65;1.63;;;;;;;8.82;100.00;102467.72;5091969;28;20055;-88
2022/03/05 08:51:51;;;;;;;9.25;2.28;;;;;;;8.79;100.00;102470.34;5087646;28;20048;-85
2022/03/05 08:54:20;;;;;;;10.55;2.38;;;;;;;8.83;100.00;102460.75;5092012;28;20044;-85
2022/03/05 08:56:48;;;;;;;11.15;2.08;;;;;;;8.28;100.00;102478.19;5090694;28;20609;-85
2022/03/05 08:59:15;;;;;;;5.72;1.30;;;;;;;8.97;100.00;102464.19;5090358;28;20857;-85
2022/03/05 09:01:42;;;;;;;6.78;1.90;;;;;;;8.63;100.00;102469.50;5089080;28;20052;-86
2022/03/05 09:04:09;;;;;;;5.18;1.52;;;;;;;8.82;100.00;102431.16;5094004;28;20093;-85
2022/03/05 09:06:38;;;;;;;9.25;1.90;;;;;;;9.05;100.00;102475.50;5106975;28;20145;-86
2022/03/05 09:09:06;;;;;;;8.60;1.90;;;;;;;8.78;100.00;102471.19;5091118;28;20420;-85
2022/03/05 09:11:34;;;;;;;7.70;1.95;;;;;;;7.76;100.00;102433.84;5075924;28;20057;-85
2022/03/05 09:14:01;;;;;;;9.73;2.63;;;;;;;8.11;100.00;102478.22;5070366;28;20128;-85
2022/03/05 09:16:27;;;;;;;6.95;1.88;;;;;;;7.93;100.00;102466.03;5072306;28;20059;-85
2022/03/05 09:18:54;;;;;;;6.05;1.70;;;;;;;8.01;100.00;102446.91;5089866;28;20062;-85
2022/03/05 09:21:21;;;;;;;11.02;1.83;;;;;;;8.13;100.00;102480.81;5081097;28;20451;-85
2022/03/05 09:23:48;;;;;;;10.02;2.30;;;;;;;8.42;100.00;102491.28;5071539;28;20041;-85
2022/03/05 09:26:15;;;;;;;6.90;2.00;;;;;;;8.43;100.00;102502.56;5099846;28;20056;-85
2022/03/05 09:28:42;;;;;;;13.65;1.98;;;;;;;8.51;100.00;102457.31;5094073;28;20047;-86
2022/03/05 09:31:09;;;;;;;8.98;2.22;;;;;;;8.62;100.00;102459.91;5094540;28;20051;-85
2022/03/05 09:33:36;;;;;;;10.18;2.03;;;;;;;8.50;100.00;102497.38;5088082;28;20049;-86
2022/03/05 09:36:03;;;;;;;10.75;1.75;;;;;;;8.12;100.00;102479.94;5092654;28;20135;-85
2022/03/05 09:38:30;;;;;;;8.05;2.00;;;;;;;8.47;100.00;102460.81;5095328;28;20048;-86
2022/03/05 09:41:00;;;;;;;8.98;2.03;;;;;;;8.30;100.00;102472.97;5093910;28;20128;-85
2022/03/05 09:43:27;;;;;;;8.80;1.83;;;;;;;8.63;100.00;102526.94;5094704;28;20462;-86
2022/03/05 09:45:54;;;;;;;9.43;1.90;;;;;;;8.05;100.00;102490.38;5080117;28;20062;-86
2022/03/05 09:48:22;;;;;;;10.27;1.70;;;;;;;8.79;100.00;102511.25;5094967;28;20070;-86
2022/03/05 09:50:48;;;;;;;7.57;1.77;;;;;;;8.54;100.00;102521.72;5087041;28;20472;-86
2022/03/05 09:53:16;;;;;;;8.35;2.00;;;;;;;9.37;100.00;102531.16;5094145;28;20409;-85
2022/03/05 09:55:43;;;;;;;7.40;1.73;;;;;;;9.02;100.00;102492.91;5095477;28;20135;-86
2022/03/05 09:58:30;;;;;;;9.70;1.75;;;;;;;9.27;100.00;102530.28;5107326;28;20401;-85
2022/03/05 10:00:57;;;;;;;5.13;1.70;;;;;;;9.53;100.00;102513.66;5093285;28;20048;-85
2022/03/05 10:03:26;;;;;;;10.43;2.20;;;;;;;8.72;100.00;102492.97;5109832;28;20044;-85
2022/03/05 10:06:13;;;;;;;12.13;2.38;;;;;;;8.73;100.00;102486.03;5094761;28;20151;-85
2022/03/05 10:08:40;;;;;;;8.25;1.83;;;;;;;9.00;100.00;102507.75;5093879;28;20050;-85
2022/03/05 10:11:09;;;;;;;8.77;2.10;;;;;;;8.80;100.00;102526.94;5092408;28;20044;-85
2022/03/05 10:13:36;;;;;;;10.10;2.00;;;;;;;9.31;100.00;102512.00;5093172;28;20051;-85
2022/03/05 10:16:05;;;;;;;7.43;2.22;;;;;;;9.62;100.00;102527.53;5093586;28;20052;-85
2022/03/05 10:18:37;;;;;;;7.72;1.80;;;;;;;9.50;100.00;102540.66;5090435;28;20052;-86
2022/03/05 10:21:07;;;;;;;7.95;2.10;;;;;;;8.86;100.00;102533.88;5091383;28;20432;-86
2022/03/05 10:23:37;;;;;;;13.82;3.20;;;;;;;8.59;100.00;102493.88;5091417;28;20084;-86
2022/03/05 10:26:09;;;;;;;12.65;2.10;;;;;;;8.92;100.00;102537.38;5093201;28;20059;-86
2022/03/05 10:28:40;;;;;;;9.95;2.13;;;;;;;9.07;100.00;102546.03;5092344;28;20054;-86
2022/03/05 10:31:10;;;;;;;11.65;2.67;;;;;;;9.57;100.00;102554.59;5092778;28;20040;-87
2022/03/05 10:33:40;;;;;;;9.82;2.42;;;;;;;9.49;100.00;102558.09;5091397;28;20048;-86
2022/03/05 10:36:21;;;;;;;9.00;1.65;;;;;;;9.56;100.00;102552.81;5093742;28;20478;-87
2022/03/05 10:38:57;;;;;;;9.43;1.70;;;;;;;9.67;100.00;102549.31;5104465;28;20050;-86
2022/03/05 10:41:39;;;;;;;7.22;1.80;;;;;;;9.56;100.00;102558.94;5100378;28;20135;-86
2022/03/05 10:44:15;;;;;;;9.88;1.60;;;;;;;9.98;100.00;102566.56;5105756;28;20044;-86
2022/03/05 10:46:59;;;;;;;11.13;2.10;;;;;;;9.60;100.00;102518.81;5091159;28;20055;-85
2022/03/05 10:49:36;;;;;;;13.20;2.05;;;;;;;10.31;100.00;102552.44;5082895;28;20048;-85
2022/03/05 10:52:03;;;;;;;15.30;3.75;;;;;;;10.22;100.00;102566.41;5091920;28;20139;-85
2022/03/05 10:54:32;;;;;;;14.00;2.10;;;;;;;9.06;100.00;102573.03;5092250;28;20379;-86
2022/03/05 10:57:09;;;;;;;10.50;2.88;;;;;;;9.45;100.00;102571.19;5092565;28;20543;-85
2022/03/05 10:59:43;;;;;;;11.13;2.03;;;;;;;9.90;100.00;102564.00;5090461;28;20131;-86
2022/03/05 11:02:12;;;;;;;10.57;1.90;;;;;;;9.69;100.00;102571.09;5085170;28;20047;-86
2022/03/05 11:04:42;;;;;;;6.35;1.58;;;;;;;9.59;100.00;102552.81;5090853;28;20051;-86
2022/03/05 11:07:10;;;;;;;9.85;2.50;;;;;;;9.49;100.00;102567.66;5092897;28;20044;-86
2022/03/05 11:09:39;;;;;;;14.07;2.10;;;;;;;9.58;100.00;102579.84;5092221;28;20044;-85
2022/03/05 11:12:08;;;;;;;10.10;2.13;;;;;;;9.22;100.00;102556.44;5085018;28;20097;-85
2022/03/05 11:14:36;;;;;;;10.60;1.88;;;;;;;9.88;100.00;102581.47;5072972;28;20056;-85
2022/03/05 11:17:04;;;;;;;7.68;1.90;;;;;;;9.69;100.00;102571.09;5085592;28;20537;-87
2022/03/05 11:19:32;;;;;;;10.70;1.92;;;;;;;9.78;100.00;102557.09;5091178;28;20052;-89
2022/03/05 11:21:58;;;;;;;9.05;1.92;;;;;;;10.14;100.00;102556.88;5092209;28;20052;-90
2022/03/05 11:24:26;;;;;;;8.95;2.05;;;;;;;9.29;100.00;102529.41;5083143;28;20048;-89
2022/03/05 11:26:55;;;;;;;21.42;2.55;;;;;;;9.99;100.00;102569.19;5092065;28;20056;-89